sensor_id;sensor_type;location;lat;lon;timestamp;P1;durP1;ratioP1;P2;durP2;ratioP2
76612;SDS011;65507;48.454;-2.058;2023-02-08T00:01:55;24.88;;;10.93;;
76612;SDS011;65507;48.454;-2.058;2023-02-08T00:04:21;24.08;;;11.02;;
76612;SDS011;65507;48.454;-2.058;2023-02-08T00:06:47;22.70;;;11.93;;
76612;SDS011;65507;48.454;-2.058;2023-02-08T00:09:13;23.10;;;11.30;;
76612;SDS011;65507;48.454;-2.058;2023-02-08T00:11:38;22.60;;;10.80;;
76612;SDS011;65507;48.454;-2.058;2023-02-08T00:14:04;20.90;;;11.68;;
76612;SDS011;65507;48.454;-2.058;2023-02-08T00:16:30;27.08;;;11.35;;
76612;SDS011;65507;48.454;-2.058;2023-02-08T00:18:56;24.88;;;10.55;;
76612;SDS011;65507;48.454;-2.058;2023-02-08T00:21:22;21.95;;;10.30;;
76612;SDS011;65507;48.454;-2.058;2023-02-08T00:23:47;26.73;;;11.15;;
76612;SDS011;65507;48.454;-2.058;2023-02-08T00:26:13;21.10;;;10.98;;
76612;SDS011;65507;48.454;-2.058;2023-02-08T00:28:40;25.38;;;11.35;;
76612;SDS011;65507;48.454;-2.058;2023-02-08T00:31:06;26.30;;;10.75;;
76612;SDS011;65507;48.454;-2.058;2023-02-08T00:33:34;24.75;;;11.40;;
76612;SDS011;65507;48.454;-2.058;2023-02-08T00:36:01;19.63;;;9.25;;
76612;SDS011;65507;48.454;-2.058;2023-02-08T00:38:30;21.45;;;10.60;;
76612;SDS011;65507;48.454;-2.058;2023-02-08T00:40:56;19.48;;;10.90;;
76612;SDS011;65507;48.454;-2.058;2023-02-08T00:43:22;20.15;;;10.73;;
76612;SDS011;65507;48.454;-2.058;2023-02-08T00:45:52;23.63;;;9.95;;
76612;SDS011;65507;48.454;-2.058;2023-02-08T00:48:19;19.30;;;9.85;;
76612;SDS011;65507;48.454;-2.058;2023-02-08T00:50:55;26.63;;;11.10;;
76612;SDS011;65507;48.454;-2.058;2023-02-08T00:53:21;21.65;;;10.70;;
76612;SDS011;65507;48.454;-2.058;2023-02-08T00:55:51;20.38;;;9.25;;
76612;SDS011;65507;48.454;-2.058;2023-02-08T00:58:17;22.05;;;9.88;;
76612;SDS011;65507;48.454;-2.058;2023-02-08T01:00:43;19.60;;;9.43;;
76612;SDS011;65507;48.454;-2.058;2023-02-08T01:03:09;19.65;;;9.23;;
76612;SDS011;65507;48.454;-2.058;2023-02-08T01:05:36;19.42;;;9.07;;
76612;SDS011;65507;48.454;-2.058;2023-02-08T01:08:02;24.38;;;9.90;;
76612;SDS011;65507;48.454;-2.058;2023-02-08T01:10:28;18.67;;;9.63;;
76612;SDS011;65507;48.454;-2.058;2023-02-08T01:12:54;16.30;;;9.00;;
76612;SDS011;65507;48.454;-2.058;2023-02-08T01:15:20;18.40;;;9.50;;
76612;SDS011;65507;48.454;-2.058;2023-02-08T01:17:46;13.93;;;7.75;;
76612;SDS011;65507;48.454;-2.058;2023-02-08T01:20:11;21.30;;;8.55;;
76612;SDS011;65507;48.454;-2.058;2023-02-08T01:22:37;16.13;;;8.82;;
76612;SDS011;65507;48.454;-2.058;2023-02-08T01:25:03;20.77;;;9.57;;
76612;SDS011;65507;48.454;-2.058;2023-02-08T01:27:29;16.25;;;7.82;;
76612;SDS011;65507;48.454;-2.058;2023-02-08T01:29:54;19.27;;;8.75;;
76612;SDS011;65507;48.454;-2.058;2023-02-08T01:32:20;21.92;;;8.75;;
76612;SDS011;65507;48.454;-2.058;2023-02-08T01:34:46;15.88;;;8.45;;
76612;SDS011;65507;48.454;-2.058;2023-02-08T01:37:12;16.52;;;8.15;;
76612;SDS011;65507;48.454;-2.058;2023-02-08T01:39:37;22.05;;;9.25;;
76612;SDS011;65507;48.454;-2.058;2023-02-08T01:42:03;18.70;;;8.32;;
76612;SDS011;65507;48.454;-2.058;2023-02-08T01:48:09;17.92;;;8.70;;
76612;SDS011;65507;48.454;-2.058;2023-02-08T01:50:57;24.17;;;8.77;;
76612;SDS011;65507;48.454;-2.058;2023-02-08T01:53:36;17.58;;;7.30;;
76612;SDS011;65507;48.454;-2.058;2023-02-08T01:56:05;16.40;;;8.40;;
76612;SDS011;65507;48.454;-2.058;2023-02-08T01:58:38;20.55;;;8.85;;
76612;SDS011;65507;48.454;-2.058;2023-02-08T02:01:06;19.95;;;8.00;;
76612;SDS011;65507;48.454;-2.058;2023-02-08T02:03:33;15.57;;;7.65;;
76612;SDS011;65507;48.454;-2.058;2023-02-08T02:06:02;17.75;;;8.18;;
76612;SDS011;65507;48.454;-2.058;2023-02-08T02:08:35;15.18;;;8.35;;
76612;SDS011;65507;48.454;-2.058;2023-02-08T02:11:02;22.27;;;8.95;;
76612;SDS011;65507;48.454;-2.058;2023-02-08T02:13:28;18.63;;;8.27;;
76612;SDS011;65507;48.454;-2.058;2023-02-08T02:15:55;21.15;;;8.93;;
76612;SDS011;65507;48.454;-2.058;2023-02-08T02:18:23;17.50;;;8.43;;
76612;SDS011;65507;48.454;-2.058;2023-02-08T02:24:04;21.40;;;9.55;;
76612;SDS011;65507;48.454;-2.058;2023-02-08T02:29:15;19.52;;;8.50;;
76612;SDS011;65507;48.454;-2.058;2023-02-08T02:37:14;19.35;;;8.82;;
76612;SDS011;65507;48.454;-2.058;2023-02-08T02:45:32;21.67;;;10.95;;
76612;SDS011;65507;48.454;-2.058;2023-02-08T02:48:09;25.75;;;11.68;;
76612;SDS011;65507;48.454;-2.058;2023-02-08T02:50:42;30.92;;;12.45;;
76612;SDS011;65507;48.454;-2.058;2023-02-08T02:53:43;22.83;;;10.65;;
76612;SDS011;65507;48.454;-2.058;2023-02-08T02:56:21;22.20;;;10.65;;
76612;SDS011;65507;48.454;-2.058;2023-02-08T02:59:01;19.55;;;9.40;;
76612;SDS011;65507;48.454;-2.058;2023-02-08T03:01:30;23.63;;;9.70;;
76612;SDS011;65507;48.454;-2.058;2023-02-08T03:03:59;23.33;;;9.85;;
76612;SDS011;65507;48.454;-2.058;2023-02-08T03:20:16;20.25;;;9.57;;
76612;SDS011;65507;48.454;-2.058;2023-02-08T03:26:05;19.33;;;9.07;;
76612;SDS011;65507;48.454;-2.058;2023-02-08T03:28:50;21.20;;;9.77;;
76612;SDS011;65507;48.454;-2.058;2023-02-08T03:31:48;20.48;;;9.98;;
76612;SDS011;65507;48.454;-2.058;2023-02-08T03:36:54;21.33;;;8.95;;
76612;SDS011;65507;48.454;-2.058;2023-02-08T03:39:26;20.98;;;9.48;;
76612;SDS011;65507;48.454;-2.058;2023-02-08T03:42:02;18.77;;;9.82;;
76612;SDS011;65507;48.454;-2.058;2023-02-08T03:44:37;24.33;;;9.50;;
76612;SDS011;65507;48.454;-2.058;2023-02-08T03:47:17;20.60;;;9.23;;
76612;SDS011;65507;48.454;-2.058;2023-02-08T03:49:47;20.05;;;9.10;;
76612;SDS011;65507;48.454;-2.058;2023-02-08T03:52:16;20.27;;;9.25;;
76612;SDS011;65507;48.454;-2.058;2023-02-08T03:54:47;18.33;;;9.70;;
76612;SDS011;65507;48.454;-2.058;2023-02-08T03:57:49;21.55;;;8.63;;
76612;SDS011;65507;48.454;-2.058;2023-02-08T04:00:27;18.05;;;9.73;;
76612;SDS011;65507;48.454;-2.058;2023-02-08T04:02:59;20.88;;;9.55;;
76612;SDS011;65507;48.454;-2.058;2023-02-08T04:05:29;20.90;;;9.75;;
76612;SDS011;65507;48.454;-2.058;2023-02-08T04:07:56;18.98;;;9.40;;
76612;SDS011;65507;48.454;-2.058;2023-02-08T04:10:21;24.48;;;10.93;;
76612;SDS011;65507;48.454;-2.058;2023-02-08T04:12:47;19.30;;;9.57;;
76612;SDS011;65507;48.454;-2.058;2023-02-08T04:15:13;22.13;;;9.80;;
76612;SDS011;65507;48.454;-2.058;2023-02-08T04:17:40;16.77;;;9.07;;
76612;SDS011;65507;48.454;-2.058;2023-02-08T04:20:06;23.30;;;9.65;;
76612;SDS011;65507;48.454;-2.058;2023-02-08T04:22:32;20.58;;;8.38;;
76612;SDS011;65507;48.454;-2.058;2023-02-08T04:24:58;21.27;;;9.52;;
76612;SDS011;65507;48.454;-2.058;2023-02-08T04:27:24;29.83;;;10.80;;
76612;SDS011;65507;48.454;-2.058;2023-02-08T04:29:50;19.45;;;10.68;;
76612;SDS011;65507;48.454;-2.058;2023-02-08T04:32:16;24.42;;;10.90;;
76612;SDS011;65507;48.454;-2.058;2023-02-08T04:34:42;17.80;;;9.43;;
76612;SDS011;65507;48.454;-2.058;2023-02-08T04:37:07;20.90;;;10.70;;
76612;SDS011;65507;48.454;-2.058;2023-02-08T04:39:33;20.00;;;10.35;;
76612;SDS011;65507;48.454;-2.058;2023-02-08T04:41:59;19.75;;;9.88;;
76612;SDS011;65507;48.454;-2.058;2023-02-08T04:44:25;17.38;;;9.10;;
76612;SDS011;65507;48.454;-2.058;2023-02-08T04:46:51;18.95;;;9.60;;
76612;SDS011;65507;48.454;-2.058;2023-02-08T04:49:17;21.75;;;9.90;;
76612;SDS011;65507;48.454;-2.058;2023-02-08T04:51:43;21.45;;;9.98;;
76612;SDS011;65507;48.454;-2.058;2023-02-08T04:54:09;21.92;;;9.30;;
76612;SDS011;65507;48.454;-2.058;2023-02-08T04:56:35;20.80;;;9.65;;
76612;SDS011;65507;48.454;-2.058;2023-02-08T04:59:01;20.85;;;9.32;;
76612;SDS011;65507;48.454;-2.058;2023-02-08T05:01:27;24.15;;;10.13;;
76612;SDS011;65507;48.454;-2.058;2023-02-08T05:03:53;23.17;;;9.77;;
76612;SDS011;65507;48.454;-2.058;2023-02-08T05:06:19;22.75;;;10.40;;
76612;SDS011;65507;48.454;-2.058;2023-02-08T05:08:45;24.05;;;10.20;;
76612;SDS011;65507;48.454;-2.058;2023-02-08T05:11:10;21.85;;;10.40;;
76612;SDS011;65507;48.454;-2.058;2023-02-08T05:13:36;20.75;;;9.38;;
76612;SDS011;65507;48.454;-2.058;2023-02-08T05:16:02;34.33;;;9.45;;
76612;SDS011;65507;48.454;-2.058;2023-02-08T05:18:28;18.83;;;9.95;;
76612;SDS011;65507;48.454;-2.058;2023-02-08T05:20:55;26.77;;;10.45;;
76612;SDS011;65507;48.454;-2.058;2023-02-08T05:23:22;22.52;;;9.75;;
76612;SDS011;65507;48.454;-2.058;2023-02-08T05:25:48;17.13;;;9.18;;
76612;SDS011;65507;48.454;-2.058;2023-02-08T05:28:13;18.77;;;9.05;;
76612;SDS011;65507;48.454;-2.058;2023-02-08T05:30:39;22.92;;;9.85;;
76612;SDS011;65507;48.454;-2.058;2023-02-08T05:33:05;21.23;;;9.40;;
76612;SDS011;65507;48.454;-2.058;2023-02-08T05:35:31;20.30;;;9.65;;
76612;SDS011;65507;48.454;-2.058;2023-02-08T05:37:56;20.00;;;9.70;;
76612;SDS011;65507;48.454;-2.058;2023-02-08T05:40:22;19.60;;;10.27;;
76612;SDS011;65507;48.454;-2.058;2023-02-08T05:42:48;23.20;;;11.05;;
76612;SDS011;65507;48.454;-2.058;2023-02-08T05:45:14;21.35;;;9.32;;
76612;SDS011;65507;48.454;-2.058;2023-02-08T05:47:39;20.55;;;10.18;;
76612;SDS011;65507;48.454;-2.058;2023-02-08T05:50:06;25.30;;;9.93;;
76612;SDS011;65507;48.454;-2.058;2023-02-08T05:52:32;24.77;;;10.65;;
76612;SDS011;65507;48.454;-2.058;2023-02-08T05:54:58;19.42;;;8.85;;
76612;SDS011;65507;48.454;-2.058;2023-02-08T05:57:26;21.67;;;9.73;;
76612;SDS011;65507;48.454;-2.058;2023-02-08T05:59:52;19.83;;;9.35;;
76612;SDS011;65507;48.454;-2.058;2023-02-08T06:02:18;17.95;;;8.82;;
76612;SDS011;65507;48.454;-2.058;2023-02-08T06:04:43;20.23;;;9.98;;
76612;SDS011;65507;48.454;-2.058;2023-02-08T06:07:10;21.55;;;10.23;;
76612;SDS011;65507;48.454;-2.058;2023-02-08T06:09:36;25.95;;;11.38;;
76612;SDS011;65507;48.454;-2.058;2023-02-08T06:12:02;18.65;;;8.90;;
76612;SDS011;65507;48.454;-2.058;2023-02-08T06:14:27;21.27;;;10.20;;
76612;SDS011;65507;48.454;-2.058;2023-02-08T06:16:53;25.20;;;11.00;;
76612;SDS011;65507;48.454;-2.058;2023-02-08T06:19:19;19.23;;;9.50;;
76612;SDS011;65507;48.454;-2.058;2023-02-08T06:21:45;20.63;;;9.88;;
76612;SDS011;65507;48.454;-2.058;2023-02-08T06:24:11;18.60;;;9.52;;
76612;SDS011;65507;48.454;-2.058;2023-02-08T06:26:37;19.05;;;9.30;;
76612;SDS011;65507;48.454;-2.058;2023-02-08T06:29:04;22.95;;;9.30;;
76612;SDS011;65507;48.454;-2.058;2023-02-08T06:31:29;23.00;;;10.00;;
76612;SDS011;65507;48.454;-2.058;2023-02-08T06:33:55;22.65;;;10.60;;
76612;SDS011;65507;48.454;-2.058;2023-02-08T06:36:21;22.60;;;10.25;;
76612;SDS011;65507;48.454;-2.058;2023-02-08T06:38:47;20.23;;;9.20;;
76612;SDS011;65507;48.454;-2.058;2023-02-08T06:41:13;17.75;;;9.48;;
76612;SDS011;65507;48.454;-2.058;2023-02-08T06:43:38;23.00;;;10.73;;
76612;SDS011;65507;48.454;-2.058;2023-02-08T06:46:05;23.83;;;11.75;;
76612;SDS011;65507;48.454;-2.058;2023-02-08T06:48:33;21.13;;;10.82;;
76612;SDS011;65507;48.454;-2.058;2023-02-08T06:50:59;25.45;;;9.88;;
76612;SDS011;65507;48.454;-2.058;2023-02-08T06:53:25;23.85;;;10.50;;
76612;SDS011;65507;48.454;-2.058;2023-02-08T06:55:51;21.25;;;10.00;;
76612;SDS011;65507;48.454;-2.058;2023-02-08T06:58:17;23.85;;;10.40;;
76612;SDS011;65507;48.454;-2.058;2023-02-08T07:00:43;20.38;;;9.65;;
76612;SDS011;65507;48.454;-2.058;2023-02-08T07:03:12;23.60;;;10.55;;
76612;SDS011;65507;48.454;-2.058;2023-02-08T07:05:41;22.88;;;11.48;;
76612;SDS011;65507;48.454;-2.058;2023-02-08T07:08:07;23.17;;;10.90;;
76612;SDS011;65507;48.454;-2.058;2023-02-08T07:10:33;24.02;;;9.93;;
76612;SDS011;65507;48.454;-2.058;2023-02-08T07:13:00;34.47;;;11.07;;
76612;SDS011;65507;48.454;-2.058;2023-02-08T07:15:26;18.05;;;9.88;;
76612;SDS011;65507;48.454;-2.058;2023-02-08T07:17:54;18.33;;;8.85;;
76612;SDS011;65507;48.454;-2.058;2023-02-08T07:20:20;27.83;;;10.95;;
76612;SDS011;65507;48.454;-2.058;2023-02-08T07:22:48;21.70;;;11.10;;
76612;SDS011;65507;48.454;-2.058;2023-02-08T07:25:14;29.73;;;10.43;;
76612;SDS011;65507;48.454;-2.058;2023-02-08T07:27:40;21.48;;;10.23;;
76612;SDS011;65507;48.454;-2.058;2023-02-08T07:30:06;22.45;;;10.82;;
76612;SDS011;65507;48.454;-2.058;2023-02-08T07:32:32;22.13;;;10.38;;
76612;SDS011;65507;48.454;-2.058;2023-02-08T07:34:58;22.40;;;9.90;;
76612;SDS011;65507;48.454;-2.058;2023-02-08T07:37:24;23.45;;;10.32;;
76612;SDS011;65507;48.454;-2.058;2023-02-08T07:39:51;25.25;;;10.32;;
76612;SDS011;65507;48.454;-2.058;2023-02-08T07:42:17;22.05;;;10.05;;
76612;SDS011;65507;48.454;-2.058;2023-02-08T07:44:43;24.00;;;9.60;;
76612;SDS011;65507;48.454;-2.058;2023-02-08T07:47:08;28.30;;;11.50;;
76612;SDS011;65507;48.454;-2.058;2023-02-08T07:49:35;23.42;;;10.52;;
76612;SDS011;65507;48.454;-2.058;2023-02-08T07:52:03;27.08;;;10.65;;
76612;SDS011;65507;48.454;-2.058;2023-02-08T07:54:34;22.50;;;9.82;;
76612;SDS011;65507;48.454;-2.058;2023-02-08T07:57:00;20.23;;;9.82;;
76612;SDS011;65507;48.454;-2.058;2023-02-08T07:59:26;20.83;;;10.13;;
76612;SDS011;65507;48.454;-2.058;2023-02-08T08:01:52;24.38;;;10.05;;
76612;SDS011;65507;48.454;-2.058;2023-02-08T08:04:18;23.00;;;9.80;;
76612;SDS011;65507;48.454;-2.058;2023-02-08T08:06:43;23.50;;;9.95;;
76612;SDS011;65507;48.454;-2.058;2023-02-08T08:09:10;23.35;;;9.60;;
76612;SDS011;65507;48.454;-2.058;2023-02-08T08:11:36;20.45;;;9.75;;
76612;SDS011;65507;48.454;-2.058;2023-02-08T08:14:02;23.23;;;9.25;;
76612;SDS011;65507;48.454;-2.058;2023-02-08T08:16:28;20.20;;;10.18;;
76612;SDS011;65507;48.454;-2.058;2023-02-08T08:18:54;18.35;;;9.75;;
76612;SDS011;65507;48.454;-2.058;2023-02-08T08:21:19;21.95;;;9.57;;
76612;SDS011;65507;48.454;-2.058;2023-02-08T08:23:45;21.40;;;8.68;;
76612;SDS011;65507;48.454;-2.058;2023-02-08T08:26:15;21.75;;;9.45;;
76612;SDS011;65507;48.454;-2.058;2023-02-08T08:28:42;31.70;;;11.10;;
76612;SDS011;65507;48.454;-2.058;2023-02-08T08:31:13;24.33;;;10.10;;
76612;SDS011;65507;48.454;-2.058;2023-02-08T08:33:41;25.42;;;10.73;;
76612;SDS011;65507;48.454;-2.058;2023-02-08T08:36:07;67.95;;;10.93;;
76612;SDS011;65507;48.454;-2.058;2023-02-08T08:38:33;51.90;;;12.15;;
76612;SDS011;65507;48.454;-2.058;2023-02-08T08:40:59;37.13;;;10.30;;
76612;SDS011;65507;48.454;-2.058;2023-02-08T08:43:25;37.17;;;11.35;;
76612;SDS011;65507;48.454;-2.058;2023-02-08T08:45:51;34.28;;;11.75;;
76612;SDS011;65507;48.454;-2.058;2023-02-08T08:48:16;30.95;;;11.35;;
76612;SDS011;65507;48.454;-2.058;2023-02-08T08:50:42;33.33;;;11.43;;
76612;SDS011;65507;48.454;-2.058;2023-02-08T08:53:08;28.63;;;10.90;;
76612;SDS011;65507;48.454;-2.058;2023-02-08T08:55:34;20.75;;;11.43;;
76612;SDS011;65507;48.454;-2.058;2023-02-08T08:58:00;25.58;;;12.73;;
76612;SDS011;65507;48.454;-2.058;2023-02-08T09:00:25;27.52;;;12.95;;
76612;SDS011;65507;48.454;-2.058;2023-02-08T09:02:51;24.73;;;12.43;;
76612;SDS011;65507;48.454;-2.058;2023-02-08T09:05:17;27.27;;;12.68;;
76612;SDS011;65507;48.454;-2.058;2023-02-08T09:07:43;35.33;;;12.85;;
76612;SDS011;65507;48.454;-2.058;2023-02-08T09:10:09;23.45;;;11.90;;
76612;SDS011;65507;48.454;-2.058;2023-02-08T09:12:37;25.65;;;12.50;;
76612;SDS011;65507;48.454;-2.058;2023-02-08T09:15:03;26.80;;;12.25;;
76612;SDS011;65507;48.454;-2.058;2023-02-08T09:17:29;27.10;;;12.43;;
76612;SDS011;65507;48.454;-2.058;2023-02-08T09:19:55;24.25;;;10.75;;
76612;SDS011;65507;48.454;-2.058;2023-02-08T09:22:21;23.33;;;10.73;;
76612;SDS011;65507;48.454;-2.058;2023-02-08T09:24:48;19.92;;;9.75;;
76612;SDS011;65507;48.454;-2.058;2023-02-08T09:27:13;22.05;;;9.00;;
76612;SDS011;65507;48.454;-2.058;2023-02-08T09:29:39;17.27;;;9.13;;
76612;SDS011;65507;48.454;-2.058;2023-02-08T09:32:05;22.23;;;9.75;;
76612;SDS011;65507;48.454;-2.058;2023-02-08T09:34:31;20.05;;;9.32;;
76612;SDS011;65507;48.454;-2.058;2023-02-08T09:36:56;21.88;;;9.93;;
76612;SDS011;65507;48.454;-2.058;2023-02-08T09:39:24;19.50;;;8.35;;
76612;SDS011;65507;48.454;-2.058;2023-02-08T09:50:27;20.02;;;9.48;;
76612;SDS011;65507;48.454;-2.058;2023-02-08T09:55:52;19.83;;;8.85;;
76612;SDS011;65507;48.454;-2.058;2023-02-08T09:58:34;21.83;;;10.10;;
76612;SDS011;65507;48.454;-2.058;2023-02-08T10:01:16;22.63;;;8.93;;
76612;SDS011;65507;48.454;-2.058;2023-02-08T10:03:45;22.73;;;9.95;;
76612;SDS011;65507;48.454;-2.058;2023-02-08T10:06:14;22.23;;;9.45;;
76612;SDS011;65507;48.454;-2.058;2023-02-08T10:08:41;21.02;;;9.65;;
76612;SDS011;65507;48.454;-2.058;2023-02-08T10:30:54;17.00;;;8.05;;
76612;SDS011;65507;48.454;-2.058;2023-02-08T10:33:31;16.73;;;8.38;;
76612;SDS011;65507;48.454;-2.058;2023-02-08T10:36:11;15.85;;;8.05;;
76612;SDS011;65507;48.454;-2.058;2023-02-08T10:38:44;17.52;;;7.85;;
76612;SDS011;65507;48.454;-2.058;2023-02-08T10:41:13;18.45;;;7.78;;
76612;SDS011;65507;48.454;-2.058;2023-02-08T10:44:02;15.65;;;7.38;;
76612;SDS011;65507;48.454;-2.058;2023-02-08T10:46:42;17.25;;;7.85;;
76612;SDS011;65507;48.454;-2.058;2023-02-08T10:49:37;16.88;;;7.70;;
76612;SDS011;65507;48.454;-2.058;2023-02-08T10:52:14;15.43;;;8.13;;
76612;SDS011;65507;48.454;-2.058;2023-02-08T10:54:39;18.02;;;8.60;;
76612;SDS011;65507;48.454;-2.058;2023-02-08T10:57:09;18.60;;;8.93;;
76612;SDS011;65507;48.454;-2.058;2023-02-08T10:59:54;16.90;;;8.20;;
76612;SDS011;65507;48.454;-2.058;2023-02-08T11:02:32;16.55;;;7.93;;
76612;SDS011;65507;48.454;-2.058;2023-02-08T11:05:04;18.25;;;7.82;;
76612;SDS011;65507;48.454;-2.058;2023-02-08T11:07:32;17.63;;;7.70;;
76612;SDS011;65507;48.454;-2.058;2023-02-08T11:12:52;16.17;;;7.05;;
76612;SDS011;65507;48.454;-2.058;2023-02-08T11:18:29;17.52;;;7.85;;
76612;SDS011;65507;48.454;-2.058;2023-02-08T11:21:04;16.10;;;7.43;;
76612;SDS011;65507;48.454;-2.058;2023-02-08T11:23:47;15.35;;;7.32;;
76612;SDS011;65507;48.454;-2.058;2023-02-08T11:26:23;16.35;;;8.13;;
76612;SDS011;65507;48.454;-2.058;2023-02-08T11:31:39;17.27;;;7.97;;
76612;SDS011;65507;48.454;-2.058;2023-02-08T11:34:32;19.35;;;8.10;;
76612;SDS011;65507;48.454;-2.058;2023-02-08T11:37:01;13.80;;;7.28;;
76612;SDS011;65507;48.454;-2.058;2023-02-08T11:39:44;13.48;;;6.93;;
76612;SDS011;65507;48.454;-2.058;2023-02-08T11:42:23;15.27;;;7.30;;
76612;SDS011;65507;48.454;-2.058;2023-02-08T11:44:50;13.98;;;8.10;;
76612;SDS011;65507;48.454;-2.058;2023-02-08T11:47:22;14.80;;;6.97;;
76612;SDS011;65507;48.454;-2.058;2023-02-08T11:49:51;13.43;;;7.22;;
76612;SDS011;65507;48.454;-2.058;2023-02-08T11:52:21;14.25;;;7.60;;
76612;SDS011;65507;48.454;-2.058;2023-02-08T11:54:53;12.93;;;6.55;;
76612;SDS011;65507;48.454;-2.058;2023-02-08T11:57:36;15.75;;;6.80;;
76612;SDS011;65507;48.454;-2.058;2023-02-08T12:00:35;13.02;;;7.00;;
76612;SDS011;65507;48.454;-2.058;2023-02-08T12:03:48;14.85;;;6.57;;
76612;SDS011;65507;48.454;-2.058;2023-02-08T12:14:29;17.13;;;6.60;;
76612;SDS011;65507;48.454;-2.058;2023-02-08T12:20:05;15.27;;;6.40;;
76612;SDS011;65507;48.454;-2.058;2023-02-08T12:41:42;13.43;;;6.25;;
76612;SDS011;65507;48.454;-2.058;2023-02-08T12:44:24;14.60;;;6.07;;
76612;SDS011;65507;48.454;-2.058;2023-02-08T12:47:13;11.35;;;6.00;;
76612;SDS011;65507;48.454;-2.058;2023-02-08T12:52:37;13.23;;;6.75;;
76612;SDS011;65507;48.454;-2.058;2023-02-08T13:01:17;14.70;;;6.90;;
76612;SDS011;65507;48.454;-2.058;2023-02-08T13:06:17;11.85;;;6.07;;
76612;SDS011;65507;48.454;-2.058;2023-02-08T13:09:02;13.65;;;7.10;;
76612;SDS011;65507;48.454;-2.058;2023-02-08T13:11:35;13.88;;;7.18;;
76612;SDS011;65507;48.454;-2.058;2023-02-08T13:16:54;12.82;;;6.82;;
76612;SDS011;65507;48.454;-2.058;2023-02-08T13:19:30;12.85;;;6.63;;
76612;SDS011;65507;48.454;-2.058;2023-02-08T13:21:57;16.33;;;6.57;;
76612;SDS011;65507;48.454;-2.058;2023-02-08T13:24:29;16.13;;;8.23;;
76612;SDS011;65507;48.454;-2.058;2023-02-08T13:26:58;14.82;;;6.75;;
76612;SDS011;65507;48.454;-2.058;2023-02-08T13:29:24;18.08;;;6.97;;
76612;SDS011;65507;48.454;-2.058;2023-02-08T13:31:59;15.98;;;7.00;;
76612;SDS011;65507;48.454;-2.058;2023-02-08T13:34:43;14.80;;;7.80;;
76612;SDS011;65507;48.454;-2.058;2023-02-08T13:37:19;14.32;;;7.47;;
76612;SDS011;65507;48.454;-2.058;2023-02-08T13:40:03;13.23;;;7.53;;
76612;SDS011;65507;48.454;-2.058;2023-02-08T13:46:00;13.63;;;8.32;;
76612;SDS011;65507;48.454;-2.058;2023-02-08T13:48:27;16.67;;;8.07;;
76612;SDS011;65507;48.454;-2.058;2023-02-08T13:52:09;16.08;;;7.78;;
76612;SDS011;65507;48.454;-2.058;2023-02-08T13:54:14;20.75;;;12.15;;
76612;SDS011;65507;48.454;-2.058;2023-02-08T13:56:44;16.63;;;8.27;;
76612;SDS011;65507;48.454;-2.058;2023-02-08T14:04:50;14.15;;;8.15;;
76612;SDS011;65507;48.454;-2.058;2023-02-08T14:07:36;14.57;;;8.10;;
76612;SDS011;65507;48.454;-2.058;2023-02-08T14:10:21;16.52;;;8.02;;
76612;SDS011;65507;48.454;-2.058;2023-02-08T14:16:21;15.20;;;8.00;;
76612;SDS011;65507;48.454;-2.058;2023-02-08T14:18:52;14.15;;;7.45;;
76612;SDS011;65507;48.454;-2.058;2023-02-08T14:24:02;15.27;;;7.40;;
76612;SDS011;65507;48.454;-2.058;2023-02-08T14:26:43;15.10;;;7.28;;
76612;SDS011;65507;48.454;-2.058;2023-02-08T14:29:15;19.65;;;7.95;;
76612;SDS011;65507;48.454;-2.058;2023-02-08T14:31:48;14.35;;;7.55;;
76612;SDS011;65507;48.454;-2.058;2023-02-08T14:34:22;16.17;;;7.68;;
76612;SDS011;65507;48.454;-2.058;2023-02-08T14:37:24;11.82;;;6.50;;
76612;SDS011;65507;48.454;-2.058;2023-02-08T14:40:32;13.57;;;7.32;;
76612;SDS011;65507;48.454;-2.058;2023-02-08T14:45:42;12.15;;;6.63;;
76612;SDS011;65507;48.454;-2.058;2023-02-08T14:50:54;14.68;;;6.63;;
76612;SDS011;65507;48.454;-2.058;2023-02-08T14:58:43;13.98;;;6.57;;
76612;SDS011;65507;48.454;-2.058;2023-02-08T15:01:20;15.52;;;6.95;;
76612;SDS011;65507;48.454;-2.058;2023-02-08T15:03:58;10.68;;;5.90;;
76612;SDS011;65507;48.454;-2.058;2023-02-08T15:08:59;14.25;;;6.90;;
76612;SDS011;65507;48.454;-2.058;2023-02-08T15:11:27;12.95;;;6.20;;
76612;SDS011;65507;48.454;-2.058;2023-02-08T15:13:56;12.65;;;5.85;;
76612;SDS011;65507;48.454;-2.058;2023-02-08T15:16:25;16.00;;;6.32;;
76612;SDS011;65507;48.454;-2.058;2023-02-08T15:19:01;13.02;;;6.28;;
76612;SDS011;65507;48.454;-2.058;2023-02-08T15:21:29;11.77;;;5.85;;
76612;SDS011;65507;48.454;-2.058;2023-02-08T15:23:57;11.57;;;5.47;;
76612;SDS011;65507;48.454;-2.058;2023-02-08T15:26:23;14.13;;;6.10;;
76612;SDS011;65507;48.454;-2.058;2023-02-08T15:28:49;13.77;;;6.90;;
76612;SDS011;65507;48.454;-2.058;2023-02-08T15:31:16;12.52;;;6.50;;
76612;SDS011;65507;48.454;-2.058;2023-02-08T15:33:44;14.27;;;7.38;;
76612;SDS011;65507;48.454;-2.058;2023-02-08T15:36:16;17.63;;;7.63;;
76612;SDS011;65507;48.454;-2.058;2023-02-08T15:38:46;13.55;;;7.13;;
76612;SDS011;65507;48.454;-2.058;2023-02-08T15:41:22;15.70;;;7.93;;
76612;SDS011;65507;48.454;-2.058;2023-02-08T15:43:59;15.43;;;7.25;;
76612;SDS011;65507;48.454;-2.058;2023-02-08T15:46:44;19.63;;;8.25;;
76612;SDS011;65507;48.454;-2.058;2023-02-08T15:51:42;16.23;;;7.03;;
76612;SDS011;65507;48.454;-2.058;2023-02-08T15:54:16;21.00;;;8.93;;
76612;SDS011;65507;48.454;-2.058;2023-02-08T15:56:47;20.98;;;8.55;;
76612;SDS011;65507;48.454;-2.058;2023-02-08T15:59:21;18.17;;;9.00;;
76612;SDS011;65507;48.454;-2.058;2023-02-08T16:01:53;19.42;;;9.05;;
76612;SDS011;65507;48.454;-2.058;2023-02-08T16:04:22;16.73;;;8.27;;
76612;SDS011;65507;48.454;-2.058;2023-02-08T16:06:50;18.77;;;9.07;;
76612;SDS011;65507;48.454;-2.058;2023-02-08T16:09:20;19.02;;;8.52;;
76612;SDS011;65507;48.454;-2.058;2023-02-08T16:11:52;20.13;;;9.38;;
76612;SDS011;65507;48.454;-2.058;2023-02-08T16:14:24;19.17;;;8.30;;
76612;SDS011;65507;48.454;-2.058;2023-02-08T16:16:53;17.35;;;8.20;;
76612;SDS011;65507;48.454;-2.058;2023-02-08T16:24:49;17.90;;;8.55;;
76612;SDS011;65507;48.454;-2.058;2023-02-08T16:29:51;21.92;;;8.85;;
76612;SDS011;65507;48.454;-2.058;2023-02-08T16:32:27;18.33;;;8.17;;
76612;SDS011;65507;48.454;-2.058;2023-02-08T16:34:53;16.23;;;8.10;;
76612;SDS011;65507;48.454;-2.058;2023-02-08T16:42:26;17.00;;;8.48;;
76612;SDS011;65507;48.454;-2.058;2023-02-08T16:47:40;18.77;;;8.85;;
76612;SDS011;65507;48.454;-2.058;2023-02-08T16:50:19;15.23;;;8.32;;
76612;SDS011;65507;48.454;-2.058;2023-02-08T16:52:53;20.95;;;8.88;;
76612;SDS011;65507;48.454;-2.058;2023-02-08T16:55:24;19.38;;;9.20;;
76612;SDS011;65507;48.454;-2.058;2023-02-08T16:57:52;18.02;;;8.98;;
76612;SDS011;65507;48.454;-2.058;2023-02-08T17:02:53;15.50;;;7.88;;
76612;SDS011;65507;48.454;-2.058;2023-02-08T17:05:20;21.08;;;8.55;;
76612;SDS011;65507;48.454;-2.058;2023-02-08T17:07:48;15.23;;;8.25;;
76612;SDS011;65507;48.454;-2.058;2023-02-08T17:10:18;17.02;;;8.23;;
76612;SDS011;65507;48.454;-2.058;2023-02-08T17:12:47;18.55;;;9.05;;
76612;SDS011;65507;48.454;-2.058;2023-02-08T17:15:13;20.88;;;8.48;;
76612;SDS011;65507;48.454;-2.058;2023-02-08T17:17:39;19.70;;;8.68;;
76612;SDS011;65507;48.454;-2.058;2023-02-08T17:20:08;24.42;;;8.60;;
76612;SDS011;65507;48.454;-2.058;2023-02-08T17:22:46;23.40;;;8.57;;
76612;SDS011;65507;48.454;-2.058;2023-02-08T17:25:12;18.75;;;8.82;;
76612;SDS011;65507;48.454;-2.058;2023-02-08T17:27:48;26.15;;;10.05;;
76612;SDS011;65507;48.454;-2.058;2023-02-08T17:32:54;26.25;;;12.07;;